Time;durP1;ratioP1;P1;durP2;ratioP2;P2;SDS_P1;SDS_P2;PMS_P1;PMS_P2;Temp;Humidity;BMP_temperature;BMP_pressure;BME280_temperature;BME280_humidity;BME280_pressure;Samples;Min_cycle;Max_cycle;Signal;HPM_P1;HPM_P2
2022/09/07 00:00:48;;;;;;;10.05;6.33;;;;;;;8.51;100.00;101500.30;1739274;82;21547;-76
2022/09/07 00:03:16;;;;;;;15.28;7.53;;;;;;;8.48;100.00;101496.52;1736066;82;21052;-76
2022/09/07 00:05:46;;;;;;;8.73;6.78;;;;;;;8.44;100.00;101496.17;1734548;82;21060;-77
2022/09/07 00:08:15;;;;;;;11.28;7.17;;;;;;;8.36;100.00;101495.00;1739068;82;21015;-77
2022/09/07 00:10:53;;;;;;;9.88;6.67;;;;;;;8.32;100.00;101501.06;1739218;82;21043;-76
2022/09/07 00:13:22;;;;;;;10.48;6.45;;;;;;;8.21;100.00;101505.09;1739678;82;21032;-77
2022/09/07 00:15:49;;;;;;;9.78;6.90;;;;;;;8.20;100.00;101502.13;1742850;82;21636;-76
2022/09/07 00:18:17;;;;;;;13.13;7.47;;;;;;;8.17;100.00;101504.73;1742277;82;21114;-77
2022/09/07 00:20:44;;;;;;;12.28;7.83;;;;;;;8.11;100.00;101505.72;1737479;82;21051;-76
2022/09/07 00:23:11;;;;;;;13.53;8.78;;;;;;;8.07;100.00;101508.34;1734921;82;21094;-76
2022/09/07 00:25:40;;;;;;;15.83;8.83;;;;;;;8.19;100.00;101507.70;1734675;82;21079;-76
2022/09/07 00:28:08;;;;;;;11.85;7.78;;;;;;;8.20;100.00;101509.38;1733267;82;21186;-77
2022/09/07 00:30:42;;;;;;;10.60;8.60;;;;;;;8.06;100.00;101509.23;1741105;82;21052;-77
2022/09/07 00:33:09;;;;;;;15.75;9.48;;;;;;;7.92;100.00;101512.86;1739914;82;20980;-76
2022/09/07 00:35:42;;;;;;;14.35;9.00;;;;;;;8.04;100.00;101506.69;1739932;82;21573;-77
2022/09/07 00:38:09;;;;;;;11.83;8.60;;;;;;;7.94;100.00;101506.44;1688238;84;21038;-77
2022/09/07 00:40:38;;;;;;;11.70;7.58;;;;;;;7.89;100.00;101508.25;1733368;82;21051;-77
2022/09/07 00:43:06;;;;;;;12.35;8.00;;;;;;;7.98;100.00;101510.19;1739120;82;21089;-75
2022/09/07 00:45:33;;;;;;;12.13;7.67;;;;;;;7.78;100.00;101513.53;1737322;82;21074;-76
2022/09/07 00:48:08;;;;;;;9.85;7.00;;;;;;;7.90;100.00;101511.20;1735042;82;21484;-75
2022/09/07 00:50:42;;;;;;;9.53;6.60;;;;;;;7.73;100.00;101507.64;1735269;82;21016;-76
2022/09/07 00:53:20;;;;;;;9.93;6.15;;;;;;;7.77;100.00;101510.12;1736330;82;21071;-76
2022/09/07 00:55:50;;;;;;;10.90;6.47;;;;;;;7.69;100.00;101506.84;1738766;82;21082;-77
2022/09/07 00:58:20;;;;;;;9.85;6.40;;;;;;;7.71;100.00;101501.70;1738867;82;21020;-77
2022/09/07 01:00:49;;;;;;;8.25;5.78;;;;;;;7.61;100.00;101499.71;1734467;82;21570;-77
2022/09/07 01:03:22;;;;;;;9.00;6.37;;;;;;;7.36;100.00;101497.53;1738467;82;21490;-77
2022/09/07 01:06:00;;;;;;;8.83;6.08;;;;;;;7.38;100.00;101501.33;1731515;82;21609;-77
2022/09/07 01:08:29;;;;;;;9.93;5.58;;;;;;;7.51;100.00;101496.89;1736531;82;21048;-76
2022/09/07 01:10:58;;;;;;;7.37;5.55;;;;;;;7.60;100.00;101500.56;1737271;82;21055;-76
2022/09/07 01:13:26;;;;;;;7.58;4.70;;;;;;;7.58;100.00;101498.05;1707938;83;21032;-76
2022/09/07 01:16:13;;;;;;;6.85;4.78;;;;;;;7.48;100.00;101498.20;1724826;82;21661;-77
2022/09/07 01:19:16;;;;;;;7.28;4.55;;;;;;;7.56;100.00;101501.48;1738550;82;21127;-76
2022/09/07 01:22:23;;;;;;;7.90;5.10;;;;;;;7.32;100.00;101499.73;1729883;82;21077;-76
2022/09/07 01:25:10;;;;;;;7.30;4.85;;;;;;;7.32;100.00;101493.73;1734271;82;21091;-76
2022/09/07 01:27:57;;;;;;;7.42;5.08;;;;;;;7.27;100.00;101505.78;1738415;82;21083;-76
2022/09/07 01:30:27;;;;;;;8.03;4.95;;;;;;;7.26;100.00;101499.81;1737054;82;21518;-76
2022/09/07 01:33:25;;;;;;;9.70;5.12;;;;;;;7.34;100.00;101492.87;1739383;82;21031;-75
2022/09/07 01:36:20;;;;;;;9.83;5.30;;;;;;;7.31;100.00;101494.17;1736734;82;21036;-75
2022/09/07 01:38:55;;;;;;;7.65;4.85;;;;;;;7.33;100.00;101501.84;1737556;82;21052;-77
2022/09/07 01:41:42;;;;;;;10.32;5.08;;;;;;;7.43;100.00;101499.56;1699564;82;21059;-76
2022/09/07 01:44:29;;;;;;;6.92;5.00;;;;;;;7.40;100.00;101498.31;1737554;82;21108;-74
2022/09/07 01:47:13;;;;;;;7.50;4.67;;;;;;;7.46;100.00;101494.41;1736007;82;21064;-75
2022/09/07 01:49:49;;;;;;;8.85;5.00;;;;;;;7.48;100.00;101494.36;1733232;82;21523;-76
2022/09/07 01:52:25;;;;;;;7.67;4.40;;;;;;;7.47;100.00;101489.67;1731895;82;21586;-75
2022/09/07 01:55:06;;;;;;;11.70;4.37;;;;;;;7.47;100.00;101495.24;1736804;82;21040;-77
2022/09/07 01:57:41;;;;;;;7.10;4.40;;;;;;;7.51;100.00;101496.44;1738554;82;21401;-76
2022/09/07 02:00:13;;;;;;;6.50;4.70;;;;;;;7.53;100.00;101500.27;1735752;82;21575;-75
2022/09/07 02:02:54;;;;;;;5.72;3.87;;;;;;;7.52;100.00;101499.43;1739263;82;21055;-76
2022/09/07 02:05:32;;;;;;;5.33;3.90;;;;;;;7.49;100.00;101498.63;1735616;82;20992;-74
2022/09/07 02:08:12;;;;;;;6.15;4.22;;;;;;;7.50;100.00;101496.45;1735455;82;21016;-76
2022/09/07 02:10:45;;;;;;;6.05;4.28;;;;;;;7.44;100.00;101493.58;1735451;82;21051;-76
2022/09/07 02:13:20;;;;;;;6.53;4.42;;;;;;;7.39;100.00;101496.19;1742835;82;21498;-75
2022/09/07 02:15:57;;;;;;;7.08;4.47;;;;;;;7.33;100.00;101497.56;1743291;82;21126;-75
2022/09/07 02:18:29;;;;;;;8.68;4.45;;;;;;;7.11;100.00;101503.86;1740541;82;21630;-76
2022/09/07 02:20:58;;;;;;;6.97;4.10;;;;;;;7.07;100.00;101502.20;1738688;82;21004;-75
2022/09/07 02:23:31;;;;;;;7.40;4.40;;;;;;;7.11;100.00;101500.02;1738864;82;21032;-76
2022/09/07 02:26:03;;;;;;;6.70;4.45;;;;;;;6.99;100.00;101497.19;1733733;82;21043;-76
2022/09/07 02:28:34;;;;;;;9.23;4.47;;;;;;;7.18;100.00;101496.08;1735767;82;21019;-74
2022/09/07 02:31:01;;;;;;;8.18;4.35;;;;;;;7.17;100.00;101497.38;1737686;82;22169;-76
2022/09/07 02:33:29;;;;;;;7.75;4.03;;;;;;;7.18;100.00;101499.08;1736040;82;21036;-76
2022/09/07 02:35:57;;;;;;;8.13;4.60;;;;;;;7.13;100.00;101500.84;1739195;82;21060;-76
2022/09/07 02:38:24;;;;;;;7.12;4.40;;;;;;;7.13;100.00;101499.56;1738715;82;21076;-74
2022/09/07 02:40:58;;;;;;;6.08;4.10;;;;;;;7.10;100.00;101491.94;1736946;82;21046;-76
2022/09/07 02:43:27;;;;;;;6.92;4.60;;;;;;;7.09;100.00;101497.47;1737202;82;21051;-75
2022/09/07 02:46:23;;;;;;;7.75;4.37;;;;;;;7.20;100.00;101495.63;1703815;83;21090;-75
2022/09/07 02:49:07;;;;;;;5.55;3.85;;;;;;;7.11;100.00;101501.30;1738670;82;21043;-75
2022/09/07 02:52:16;;;;;;;5.25;3.95;;;;;;;7.11;100.00;101507.26;1739269;82;21558;-76
2022/09/07 02:55:13;;;;;;;6.22;4.12;;;;;;;7.12;100.00;101494.89;1738851;82;21094;-76
2022/09/07 02:58:21;;;;;;;7.45;4.08;;;;;;;7.14;100.00;101498.27;1739251;82;21476;-76
2022/09/07 03:00:59;;;;;;;8.55;4.35;;;;;;;7.06;100.00;101494.13;1739038;82;21110;-76
2022/09/07 03:03:43;;;;;;;7.58;4.47;;;;;;;7.04;100.00;101496.70;1739017;82;21518;-76
2022/09/07 03:06:30;;;;;;;6.08;4.00;;;;;;;7.06;100.00;101504.37;1739448;82;21555;-75
2022/09/07 03:09:01;;;;;;;8.08;3.90;;;;;;;7.12;100.00;101503.84;1708565;82;21075;-75
2022/09/07 03:11:29;;;;;;;8.98;4.37;;;;;;;7.17;100.00;101499.94;1715724;82;21480;-76
2022/09/07 03:14:16;;;;;;;8.88;4.53;;;;;;;7.23;100.00;101501.13;1734801;82;21496;-75
2022/09/07 03:16:46;;;;;;;6.25;4.00;;;;;;;7.25;100.00;101505.80;1738475;82;22568;-76
2022/09/07 03:19:14;;;;;;;7.65;4.50;;;;;;;7.25;100.00;101510.08;1740739;82;21039;-75
2022/09/07 03:21:41;;;;;;;8.08;4.50;;;;;;;7.28;100.00;101508.73;1739026;82;21504;-73
2022/09/07 03:24:08;;;;;;;6.95;3.72;;;;;;;7.25;100.00;101510.08;1737705;82;21062;-75
2022/09/07 03:26:43;;;;;;;5.72;3.83;;;;;;;7.25;100.00;101508.80;1736298;82;21595;-76
2022/09/07 03:29:09;;;;;;;7.12;4.40;;;;;;;7.22;100.00;101508.41;1739365;82;21333;-76
2022/09/07 03:31:39;;;;;;;6.87;4.22;;;;;;;7.24;100.00;101514.36;1739149;82;21516;-74
2022/09/07 03:34:06;;;;;;;7.83;4.10;;;;;;;7.25;100.00;101519.04;1738844;82;21016;-75
2022/09/07 03:36:34;;;;;;;9.68;4.50;;;;;;;7.21;100.00;101518.23;1735096;82;21042;-76
2022/09/07 03:39:01;;;;;;;9.88;4.33;;;;;;;7.23;100.00;101520.33;1739934;82;21063;-75
2022/09/07 03:41:29;;;;;;;8.78;4.60;;;;;;;7.34;100.00;101523.60;1739973;82;21075;-76
2022/09/07 03:44:03;;;;;;;17.52;6.58;;;;;;;7.36;100.00;101532.11;1739040;82;21051;-75
2022/09/07 03:46:31;;;;;;;12.73;7.67;;;;;;;7.32;100.00;101539.42;1738781;82;21039;-76
2022/09/07 03:48:58;;;;;;;12.35;6.70;;;;;;;7.27;100.00;101541.19;1737646;82;21012;-76
2022/09/07 03:51:25;;;;;;;8.75;6.12;;;;;;;7.29;100.00;101543.30;1736868;82;21078;-75
2022/09/07 03:53:54;;;;;;;10.75;5.75;;;;;;;7.30;100.00;101543.72;1734176;82;21030;-74
2022/09/07 03:56:23;;;;;;;11.60;5.60;;;;;;;7.33;100.00;101544.95;1739134;82;21486;-77
2022/09/07 03:58:51;;;;;;;10.15;4.95;;;;;;;7.45;100.00;101549.50;1745001;82;21514;-76
2022/09/07 04:01:23;;;;;;;9.00;5.15;;;;;;;7.50;100.00;101545.14;1732508;82;21075;-76
2022/09/07 04:03:51;;;;;;;6.62;4.83;;;;;;;7.50;100.00;101543.45;1736482;82;21034;-76
2022/09/07 04:06:19;;;;;;;7.33;5.12;;;;;;;7.55;100.00;101545.93;1740960;82;21003;-76
2022/09/07 04:08:46;;;;;;;8.15;4.97;;;;;;;7.60;100.00;101547.97;1738572;82;21050;-76
2022/09/07 04:11:16;;;;;;;7.33;5.10;;;;;;;7.55;100.00;101551.05;1738687;82;21071;-77
2022/09/07 04:13:45;;;;;;;8.88;5.72;;;;;;;7.68;100.00;101554.27;1739211;82;21051;-76
2022/09/07 04:16:23;;;;;;;8.05;5.22;;;;;;;7.82;100.00;101546.77;1742439;82;21555;-78
2022/09/07 04:18:53;;;;;;;10.15;5.60;;;;;;;7.94;100.00;101547.45;1738535;82;21082;-77
2022/09/07 04:21:22;;;;;;;8.15;5.25;;;;;;;8.06;100.00;101552.37;1737849;82;21047;-76
2022/09/07 04:23:50;;;;;;;7.55;5.17;;;;;;;8.15;100.00;101552.23;1736284;82;21588;-75
2022/09/07 04:26:22;;;;;;;10.65;6.05;;;;;;;8.27;100.00;101550.31;1736712;82;21515;-76
2022/09/07 04:28:50;;;;;;;10.40;5.17;;;;;;;8.31;100.00;101551.95;1743028;82;21031;-77
2022/09/07 04:31:20;;;;;;;13.88;5.92;;;;;;;8.35;100.00;101550.60;1740832;82;21076;-77
2022/09/07 04:33:50;;;;;;;7.67;5.53;;;;;;;8.46;100.00;101548.31;1738889;82;21044;-77
2022/09/07 04:36:18;;;;;;;7.50;5.47;;;;;;;8.53;100.00;101549.87;1738980;82;21083;-76
2022/09/07 04:38:46;;;;;;;10.10;5.53;;;;;;;8.65;100.00;101556.50;1738799;82;21028;-76
2022/09/07 04:41:16;;;;;;;10.50;5.22;;;;;;;8.81;100.00;101557.44;1738974;82;21048;-77
2022/09/07 04:43:45;;;;;;;10.35;5.85;;;;;;;8.98;100.00;101553.27;1742758;81;21012;-76
2022/09/07 04:46:20;;;;;;;8.85;5.55;;;;;;;9.12;100.00;101553.39;1732130;81;21531;-76
2022/09/07 04:48:54;;;;;;;9.83;5.75;;;;;;;9.22;100.00;101549.75;1744587;81;20962;-75
2022/09/07 04:51:26;;;;;;;12.47;6.70;;;;;;;9.30;100.00;101553.00;1745325;81;21055;-78
2022/09/07 04:53:55;;;;;;;10.40;6.95;;;;;;;9.48;100.00;101557.33;1749004;81;21021;-78
2022/09/07 04:56:23;;;;;;;11.05;6.72;;;;;;;9.51;100.00;101559.41;1744524;81;21000;-78
2022/09/07 04:58:50;;;;;;;9.50;6.30;;;;;;;9.62;100.00;101551.44;1739859;82;21697;-77
2022/09/07 05:01:21;;;;;;;8.95;5.72;;;;;;;9.77;100.00;101558.80;1743365;81;21470;-77
2022/09/07 05:03:49;;;;;;;14.68;5.97;;;;;;;9.97;100.00;101554.42;1748543;81;21532;-77
2022/09/07 05:06:19;;;;;;;9.48;5.70;;;;;;;9.95;100.00;101556.64;1748108;81;21024;-77
2022/09/07 05:08:49;;;;;;;10.00;5.75;;;;;;;10.12;100.00;101558.37;1742774;82;21469;-76
2022/09/07 05:11:18;;;;;;;8.63;5.55;;;;;;;10.25;100.00;101560.62;1746672;81;20996;-78
2022/09/07 05:13:45;;;;;;;11.50;6.15;;;;;;;10.33;100.00;101556.98;1747173;81;20973;-77
2022/09/07 05:16:16;;;;;;;8.93;5.47;;;;;;;10.38;100.00;101552.58;1744881;81;21114;-77
2022/09/07 05:18:50;;;;;;;7.60;5.37;;;;;;;10.47;100.00;101557.91;1748121;81;21109;-76
2022/09/07 05:21:21;;;;;;;6.90;5.37;;;;;;;10.58;100.00;101561.06;1743952;81;21055;-78
2022/09/07 05:23:51;;;;;;;13.05;5.50;;;;;;;10.75;100.00;101552.86;1750191;81;20964;-77
2022/09/07 05:26:20;;;;;;;9.10;5.50;;;;;;;10.92;100.00;101559.26;1748235;81;21020;-77
2022/09/07 05:28:48;;;;;;;7.60;5.20;;;;;;;11.11;100.00;101553.11;1746947;81;21563;-76
2022/09/07 05:31:19;;;;;;;8.65;5.42;;;;;;;11.39;100.00;101550.55;1749492;81;21070;-76
2022/09/07 05:33:52;;;;;;;10.23;5.78;;;;;;;11.50;100.00;101545.09;1749406;81;21020;-78
2022/09/07 05:36:22;;;;;;;9.95;5.47;;;;;;;11.59;100.00;101548.64;1745568;81;21019;-77
2022/09/07 05:38:49;;;;;;;8.68;5.62;;;;;;;11.73;100.00;101546.92;1686988;84;21049;-77
2022/09/07 05:41:20;;;;;;;8.93;5.37;;;;;;;11.90;100.00;101558.00;1702805;83;21015;-76
2022/09/07 05:43:48;;;;;;;8.38;5.10;;;;;;;12.05;100.00;101552.34;1688381;84;21052;-78
2022/09/07 05:46:15;;;;;;;7.37;4.80;;;;;;;12.20;100.00;101550.98;1675397;84;21050;-77
2022/09/07 05:48:43;;;;;;;9.90;5.85;;;;;;;12.36;100.00;101556.46;1687661;84;21049;-77
2022/09/07 05:51:12;;;;;;;10.95;5.67;;;;;;;12.53;100.00;101555.44;1679853;84;21023;-77
2022/09/07 05:53:42;;;;;;;7.95;5.37;;;;;;;12.68;100.00;101550.16;1680189;84;20985;-77
2022/09/07 05:56:11;;;;;;;13.25;6.30;;;;;;;12.88;100.00;101553.31;1679135;85;21009;-77
2022/09/07 05:58:38;;;;;;;9.68;5.60;;;;;;;13.01;100.00;101552.39;1695236;83;21058;-77
2022/09/07 06:01:11;;;;;;;14.33;6.60;;;;;;;13.22;100.00;101557.22;1693280;83;21587;-77
2022/09/07 06:03:41;;;;;;;9.85;5.70;;;;;;;13.33;100.00;101556.37;1691340;83;21092;-77
2022/09/07 06:06:14;;;;;;;9.10;5.78;;;;;;;13.52;100.00;101560.81;1693884;83;21083;-77
2022/09/07 06:08:47;;;;;;;11.18;6.35;;;;;;;13.58;100.00;101554.97;1689031;83;21020;-75
2022/09/07 06:11:21;;;;;;;8.90;5.60;;;;;;;13.81;100.00;101550.15;1688735;83;21545;-76
2022/09/07 06:13:48;;;;;;;9.03;6.05;;;;;;;13.99;100.00;101554.16;1685580;83;22097;-77
2022/09/07 06:16:17;;;;;;;10.13;5.90;;;;;;;14.18;100.00;101556.38;1695988;83;21097;-77
2022/09/07 06:18:47;;;;;;;11.33;6.30;;;;;;;14.29;100.00;101556.37;1741836;80;21085;-75
2022/09/07 06:21:18;;;;;;;11.57;6.70;;;;;;;14.50;100.00;101559.34;1747379;81;21044;-77
2022/09/07 06:23:47;;;;;;;10.28;6.58;;;;;;;14.63;100.00;101566.14;1743314;82;21022;-77
2022/09/07 06:26:17;;;;;;;9.48;5.65;;;;;;;14.75;100.00;101565.59;1743523;81;21015;-77
2022/09/07 06:28:47;;;;;;;8.60;5.87;;;;;;;14.87;98.68;101569.86;1747821;81;21000;-78
2022/09/07 06:31:18;;;;;;;8.08;4.70;;;;;;;15.08;95.88;101566.73;1752563;81;21508;-78
2022/09/07 06:33:47;;;;;;;8.08;4.90;;;;;;;15.06;94.08;101575.03;1753135;81;21031;-76
2022/09/07 06:36:17;;;;;;;5.92;4.00;;;;;;;15.13;93.48;101571.27;1741564;81;21089;-76
2022/09/07 06:38:45;;;;;;;6.25;4.10;;;;;;;15.27;91.28;101566.27;1749302;81;21503;-78
2022/09/07 06:41:24;;;;;;;6.58;3.42;;;;;;;15.36;93.13;101567.58;1748612;81;21051;-78
2022/09/07 06:43:53;;;;;;;4.90;3.08;;;;;;;15.44;92.37;101571.95;1739111;82;21559;-77
2022/09/07 06:46:20;;;;;;;6.45;3.12;;;;;;;15.57;92.09;101573.49;1738935;82;21059;-77
2022/09/07 06:48:55;;;;;;;6.78;3.37;;;;;;;15.69;89.88;101575.96;1739030;82;21077;-76
2022/09/07 06:51:27;;;;;;;3.87;2.17;;;;;;;15.83;86.18;101581.35;1738910;82;21044;-78
2022/09/07 06:54:00;;;;;;;3.98;2.08;;;;;;;15.84;83.58;101580.91;1741052;82;21083;-76
2022/09/07 06:56:28;;;;;;;4.72;2.00;;;;;;;16.04;82.13;101578.17;1735295;82;21087;-78
2022/09/07 06:58:56;;;;;;;4.50;2.00;;;;;;;16.15;80.02;101584.95;1736033;82;21543;-77
2022/09/07 07:01:24;;;;;;;4.92;2.00;;;;;;;16.31;77.21;101582.89;1736815;82;21289;-77
2022/09/07 07:03:53;;;;;;;4.40;2.05;;;;;;;16.34;76.60;101581.41;1731688;82;21010;-79
2022/09/07 07:06:20;;;;;;;3.95;1.75;;;;;;;16.60;77.48;101584.80;1738572;82;21041;-77
2022/09/07 07:08:51;;;;;;;5.15;2.90;;;;;;;16.65;77.05;101583.28;1724472;82;21057;-78
2022/09/07 07:11:18;;;;;;;4.85;1.50;;;;;;;16.53;77.99;101586.05;1728252;82;21434;-77
2022/09/07 07:13:45;;;;;;;3.62;1.55;;;;;;;16.60;76.17;101586.56;1738850;82;21046;-77
2022/09/07 07:16:15;;;;;;;1.62;1.37;;;;;;;16.68;75.02;101593.97;1738330;82;21058;-76
2022/09/07 07:18:44;;;;;;;3.40;1.45;;;;;;;16.77;74.15;101592.20;1728847;82;21033;-77
2022/09/07 07:21:14;;;;;;;3.30;1.57;;;;;;;16.98;73.01;101583.27;1731121;82;21092;-77
2022/09/07 07:23:41;;;;;;;7.15;1.70;;;;;;;17.15;73.31;101586.28;1727678;82;21678;-78
2022/09/07 07:26:19;;;;;;;1.62;1.30;;;;;;;17.39;72.86;101591.04;1733461;82;21496;-77
2022/09/07 07:28:49;;;;;;;5.72;1.82;;;;;;;17.64;71.81;101590.52;1738790;82;21025;-77
2022/09/07 07:31:19;;;;;;;2.85;1.50;;;;;;;17.66;68.51;101591.27;1738870;82;21017;-78
2022/09/07 07:33:47;;;;;;;3.80;1.55;;;;;;;17.19;68.16;101599.50;1738543;82;21065;-76
2022/09/07 07:36:18;;;;;;;4.83;1.72;;;;;;;16.99;69.27;101595.81;1732758;82;21580;-77
2022/09/07 07:38:49;;;;;;;2.92;1.70;;;;;;;17.02;70.44;101599.09;1739067;82;21037;-77
2022/09/07 07:41:19;;;;;;;3.25;1.60;;;;;;;16.80;71.77;101595.92;1738954;82;21022;-76
2022/09/07 07:43:47;;;;;;;1.87;1.42;;;;;;;17.01;70.07;101595.27;1735500;82;21042;-77
2022/09/07 07:46:16;;;;;;;4.03;1.90;;;;;;;17.01;69.94;101596.56;1735635;82;21061;-78
2022/09/07 07:48:48;;;;;;;2.98;1.80;;;;;;;16.71;69.04;101599.86;1735514;82;21105;-77
2022/09/07 07:51:15;;;;;;;2.58;1.45;;;;;;;17.21;69.04;101591.58;1726421;82;21013;-76
2022/09/07 07:53:43;;;;;;;3.72;1.50;;;;;;;17.65;69.63;101583.54;1726458;82;21045;-77
2022/09/07 07:56:12;;;;;;;3.90;1.42;;;;;;;17.67;65.96;101579.09;1721905;82;21037;-77
2022/09/07 07:58:43;;;;;;;3.80;1.77;;;;;;;17.70;66.19;101582.36;1731142;82;21033;-77
2022/09/07 08:01:14;;;;;;;2.30;1.90;;;;;;;17.76;66.66;101582.02;1696399;82;21041;-77
2022/09/07 08:03:43;;;;;;;2.83;1.57;;;;;;;17.59;67.31;101589.92;1736327;82;21033;-77
2022/09/07 08:06:16;;;;;;;3.80;1.50;;;;;;;17.53;65.75;101581.16;1727760;82;21053;-77
2022/09/07 08:08:44;;;;;;;2.27;1.35;;;;;;;18.01;66.75;101578.02;1728630;82;21404;-76
2022/09/07 08:11:17;;;;;;;2.45;1.40;;;;;;;18.16;64.60;101574.49;1735484;82;21561;-77
2022/09/07 08:13:48;;;;;;;5.08;1.45;;;;;;;18.24;61.46;101575.34;1733399;82;21529;-76
2022/09/07 08:16:16;;;;;;;1.55;1.42;;;;;;;18.32;63.04;101573.59;1729065;82;21085;-76
2022/09/07 08:21:18;;;;;;;;;;;;;;;18.90;60.82;101570.08;1739254;82;21525;-77
2022/09/07 08:23:45;;;;;;;3.22;1.42;;;;;;;18.93;60.80;101570.34;1738835;82;20478;-76
2022/09/07 08:26:12;;;;;;;2.55;1.35;;;;;;;18.97;59.21;101567.91;1735937;82;21513;-76
2022/09/07 08:28:42;;;;;;;2.02;1.40;;;;;;;19.20;61.61;101567.31;1734814;82;21632;-77
2022/09/07 08:31:14;;;;;;;2.60;1.47;;;;;;;19.66;61.04;101562.66;1731085;82;21061;-78
2022/09/07 08:33:42;;;;;;;1.47;1.37;;;;;;;19.97;59.88;101557.56;1730627;82;21053;-77
2022/09/07 08:36:20;;;;;;;1.67;1.25;;;;;;;19.90;60.25;101561.54;1738887;82;21049;-77
2022/09/07 08:38:47;;;;;;;2.25;1.30;;;;;;;19.73;60.06;101560.89;1723117;82;21053;-77
2022/09/07 08:41:44;;;;;;;1.67;1.47;;;;;;;19.73;60.46;101566.11;1735802;82;21073;-78
2022/09/07 08:44:32;;;;;;;4.00;1.70;;;;;;;19.29;60.63;101565.87;1729949;82;21057;-75
2022/09/07 08:47:28;;;;;;;3.35;1.40;;;;;;;19.08;61.41;101564.62;1723087;82;21033;-76
2022/09/07 08:50:03;;;;;;;2.85;1.60;;;;;;;19.06;62.43;101556.05;1721783;82;21116;-76
2022/09/07 08:52:42;;;;;;;4.25;1.82;;;;;;;18.75;62.51;101559.25;1729589;82;21497;-76
2022/09/07 08:55:17;;;;;;;3.17;1.62;;;;;;;18.49;62.45;101550.41;1710504;82;21582;-78
2022/09/07 08:57:52;;;;;;;2.35;1.40;;;;;;;18.24;62.94;101553.66;1732269;82;21022;-76
2022/09/07 09:00:21;;;;;;;3.50;1.50;;;;;;;18.33;63.99;101550.49;1734039;82;21125;-77
2022/09/07 09:02:49;;;;;;;1.70;1.50;;;;;;;18.60;62.93;101546.22;1736061;82;21096;-77
2022/09/07 09:05:27;;;;;;;2.33;1.70;;;;;;;18.78;60.60;101536.90;1738809;82;21105;-76
2022/09/07 09:08:05;;;;;;;4.53;1.40;;;;;;;18.84;61.08;101532.63;1721186;82;21069;-77
2022/09/07 09:11:10;;;;;;;3.05;1.80;;;;;;;19.16;62.65;101527.12;1702452;82;21148;-77
2022/09/07 09:13:52;;;;;;;4.03;1.45;;;;;;;19.20;59.57;101532.08;1739172;82;21082;-78
2022/09/07 09:16:36;;;;;;;1.87;1.60;;;;;;;19.13;59.48;101533.86;1732149;82;21161;-78
2022/09/07 09:19:33;;;;;;;2.40;1.30;;;;;;;19.20;58.47;101534.69;1732926;82;21076;-77
2022/09/07 09:22:24;;;;;;;1.42;1.30;;;;;;;19.50;58.06;101527.08;1738776;82;21029;-77
2022/09/07 09:25:13;;;;;;;2.40;1.60;;;;;;;19.83;57.84;101519.31;1724480;82;21104;-76
2022/09/07 09:27:42;;;;;;;4.15;1.90;;;;;;;20.17;56.93;101523.09;1734341;82;21049;-77
2022/09/07 09:30:18;;;;;;;5.30;2.52;;;;;;;20.47;56.63;101519.76;1734088;82;21049;-78
2022/09/07 09:32:49;;;;;;;2.05;1.70;;;;;;;20.21;57.74;101525.00;1727848;82;21041;-76
2022/09/07 09:35:37;;;;;;;3.65;1.70;;;;;;;19.88;58.36;101518.52;1724530;82;21092;-77
2022/09/07 09:38:42;;;;;;;3.00;2.00;;;;;;;19.72;55.65;101517.39;1726885;82;21569;-76
2022/09/07 09:41:14;;;;;;;2.72;1.40;;;;;;;19.81;58.78;101520.72;1724780;82;21033;-76
2022/09/07 09:43:57;;;;;;;1.40;1.10;;;;;;;19.03;56.64;101517.95;1730690;82;21577;-76
2022/09/07 09:46:32;;;;;;;5.50;1.70;;;;;;;19.15;55.51;101515.03;1729853;82;21053;-76
2022/09/07 09:49:21;;;;;;;2.12;1.40;;;;;;;19.03;56.77;101510.59;1738430;82;21030;-76
2022/09/07 09:51:51;;;;;;;3.42;1.30;;;;;;;19.50;55.28;101514.50;1733507;82;21093;-77
2022/09/07 09:54:32;;;;;;;3.70;1.50;;;;;;;19.90;54.39;101509.27;1728037;82;21057;-77
2022/09/07 09:56:59;;;;;;;2.22;1.50;;;;;;;20.14;52.83;101502.38;1723607;82;21069;-77
2022/09/07 09:59:32;;;;;;;2.90;1.40;;;;;;;20.45;52.80;101501.55;1729243;82;21104;-77
2022/09/07 10:02:14;;;;;;;1.25;1.12;;;;;;;20.08;54.02;101479.75;1739090;82;21006;-76
2022/09/07 10:04:41;;;;;;;2.58;1.10;;;;;;;19.80;53.67;101502.52;1731659;82;21132;-76
2022/09/07 10:07:17;;;;;;;1.65;1.12;;;;;;;19.60;54.07;101495.98;1724532;82;21026;-77
2022/09/07 10:09:54;;;;;;;2.45;1.60;;;;;;;19.37;55.11;101499.64;1721681;82;21065;-78
2022/09/07 10:12:30;;;;;;;5.08;1.85;;;;;;;18.96;55.95;101498.41;1729459;82;21577;-76
2022/09/07 10:15:00;;;;;;;2.25;1.55;;;;;;;19.17;56.53;101502.72;1731006;82;21052;-77
2022/09/07 10:17:35;;;;;;;3.27;1.82;;;;;;;19.59;56.60;101491.23;1721870;82;21327;-77
2022/09/07 10:20:16;;;;;;;2.58;1.45;;;;;;;20.04;55.54;101495.28;1734204;82;21073;-76
2022/09/07 10:22:53;;;;;;;2.17;1.45;;;;;;;20.26;54.22;101485.01;1721847;82;21081;-77
2022/09/07 10:25:40;;;;;;;3.22;1.65;;;;;;;20.54;53.90;101485.22;1727075;82;21053;-76
2022/09/07 10:28:15;;;;;;;2.33;1.30;;;;;;;20.86;56.41;101487.33;1688186;83;21053;-75
2022/09/07 10:31:07;;;;;;;4.00;1.57;;;;;;;21.34;58.23;101478.16;1728717;82;21104;-76
2022/09/07 10:33:45;;;;;;;1.60;1.50;;;;;;;21.79;54.75;101478.77;1732272;82;21073;-76
2022/09/07 10:36:24;;;;;;;2.08;1.40;;;;;;;21.80;51.65;101479.15;1726090;82;21053;-77
2022/09/07 10:38:57;;;;;;;6.00;1.70;;;;;;;21.91;51.41;101479.62;1709526;82;21041;-76
2022/09/07 10:41:41;;;;;;;5.30;1.82;;;;;;;20.91;53.62;101484.41;1738514;82;22155;-76
2022/09/07 10:44:20;;;;;;;4.35;1.80;;;;;;;20.77;54.39;101481.47;1696669;82;21065;-77
2022/09/07 10:46:58;;;;;;;1.50;1.40;;;;;;;20.13;53.84;101483.73;1736665;82;21041;-76
2022/09/07 10:49:33;;;;;;;3.00;1.60;;;;;;;19.93;54.04;101482.47;1727862;82;21119;-76
2022/09/07 10:52:41;;;;;;;2.47;1.55;;;;;;;19.95;53.93;101487.13;1725429;82;21060;-76
2022/09/07 10:55:25;;;;;;;2.22;1.52;;;;;;;20.19;54.50;101471.98;1735471;82;21077;-76
2022/09/07 10:58:33;;;;;;;3.52;1.70;;;;;;;20.49;53.90;101472.92;1733821;82;21034;-76
2022/09/07 11:01:09;;;;;;;2.77;1.70;;;;;;;20.47;54.91;101472.68;1721845;82;21017;-75
2022/09/07 11:04:46;;;;;;;2.50;1.80;;;;;;;20.47;53.74;101472.20;1738066;82;21615;-75
2022/09/07 11:07:40;;;;;;;3.15;1.85;;;;;;;20.84;52.33;101468.29;1727474;82;21061;-77
2022/09/07 11:10:32;;;;;;;3.25;2.00;;;;;;;20.61;51.93;101469.47;1645783;84;21062;-76
2022/09/07 11:13:22;;;;;;;5.17;2.50;;;;;;;20.56;52.06;101471.56;1727158;82;21070;-76
2022/09/07 11:16:03;;;;;;;3.80;1.60;;;;;;;20.64;53.44;101467.58;1731984;82;21061;-78
2022/09/07 11:18:53;;;;;;;3.90;1.77;;;;;;;20.51;52.87;101468.42;1739043;82;21065;-78
2022/09/07 11:21:37;;;;;;;2.72;1.82;;;;;;;19.72;52.37;101464.32;1733063;82;21060;-77
2022/09/07 11:24:27;;;;;;;4.53;1.72;;;;;;;20.05;52.37;101467.70;1724289;82;21064;-77
2022/09/07 11:26:59;;;;;;;3.60;1.90;;;;;;;20.55;52.38;101462.03;1729632;82;21069;-75
2022/09/07 11:29:37;;;;;;;1.60;1.47;;;;;;;20.99;52.55;101460.65;1735865;82;21532;-78
2022/09/07 11:32:10;;;;;;;2.60;1.60;;;;;;;20.73;50.75;101459.91;1738441;82;21168;-76
2022/09/07 11:34:53;;;;;;;2.92;2.10;;;;;;;21.20;51.17;101463.45;1730018;82;21049;-76
2022/09/07 11:37:41;;;;;;;3.00;1.98;;;;;;;21.38;50.02;101461.74;1735540;82;21097;-78
2022/09/07 11:40:28;;;;;;;5.92;2.70;;;;;;;21.31;50.38;101462.69;1737824;82;21041;-76
2022/09/07 11:43:23;;;;;;;4.45;2.92;;;;;;;21.04;49.86;101452.45;1738922;82;21041;-76
2022/09/07 11:46:27;;;;;;;5.35;2.92;;;;;;;20.75;51.92;101455.89;1738810;81;21058;-76
2022/09/07 11:48:56;;;;;;;6.17;3.67;;;;;;;20.86;52.91;101449.87;1729435;82;21076;-76
2022/09/07 11:51:43;;;;;;;5.50;3.47;;;;;;;21.03;52.54;101442.94;1695154;82;21073;-76
2022/09/07 11:54:22;;;;;;;7.00;3.60;;;;;;;21.41;52.09;101441.41;1731297;82;21061;-77
2022/09/07 11:56:54;;;;;;;4.17;2.27;;;;;;;21.52;50.01;101442.41;1738505;82;21010;-77
2022/09/07 11:59:45;;;;;;;4.20;2.50;;;;;;;21.11;52.24;101443.69;1734340;82;21053;-75
2022/09/07 12:02:59;;;;;;;4.80;2.70;;;;;;;21.09;52.37;101444.28;1730993;82;21528;-78